createdAt,value
2022-11-09T00:02:29.226Z,9.20
2022-11-09T00:07:19.742Z,9.20
2022-11-09T00:12:07.666Z,9.20
2022-11-09T00:16:51.445Z,9.20
2022-11-09T00:21:44.636Z,9.10
2022-11-09T00:26:29.663Z,9.00
2022-11-09T00:31:19.238Z,9.00
2022-11-09T00:36:08.577Z,8.80
2022-11-09T00:40:52.300Z,8.60
2022-11-09T00:45:43.816Z,8.50
2022-11-09T00:50:28.770Z,8.40
2022-11-09T00:55:16.096Z,8.40
2022-11-09T01:00:03.589Z,8.30
2022-11-09T01:05:09.231Z,8.30
2022-11-09T01:09:57.384Z,8.30
2022-11-09T01:14:47.691Z,8.30
2022-11-09T01:19:31.486Z,8.40
2022-11-09T01:24:19.557Z,8.40
2022-11-09T01:29:11.336Z,8.40
2022-11-09T01:33:55.895Z,8.50
2022-11-09T01:38:46.210Z,8.50
2022-11-09T01:43:34.391Z,8.60
2022-11-09T01:48:26.194Z,8.60
2022-11-09T01:53:14.286Z,8.60
2022-11-09T01:58:01.858Z,8.70
2022-11-09T02:02:58.592Z,8.70
2022-11-09T02:07:50.128Z,8.80
2022-11-09T02:12:37.855Z,8.80
2022-11-09T02:17:23.892Z,8.90
2022-11-09T02:22:16.006Z,9.00
2022-11-09T02:27:00.035Z,8.90
2022-11-09T02:32:06.680Z,8.90
2022-11-09T02:36:53.195Z,9.00
2022-11-09T02:41:55.267Z,9.00
2022-11-09T02:46:48.574Z,9.00
2022-11-09T02:51:32.414Z,8.90
2022-11-09T02:56:21.915Z,8.80
2022-11-09T03:01:09.187Z,8.90
2022-11-09T03:05:57.817Z,8.80
2022-11-09T03:10:44.390Z,8.80
2022-11-09T03:15:33.188Z,8.80
2022-11-09T03:20:21.885Z,8.60
2022-11-09T03:25:10.327Z,8.50
2022-11-09T03:29:55.530Z,8.40
2022-11-09T03:34:45.043Z,8.50
2022-11-09T03:39:33.601Z,8.40
2022-11-09T03:44:21.031Z,8.30
2022-11-09T03:49:08.746Z,8.20
2022-11-09T03:53:55.733Z,8.10
2022-11-09T03:59:05.981Z,8.10
2022-11-09T04:03:49.437Z,8.10
2022-11-09T04:08:35.498Z,8.00
2022-11-09T04:13:25.339Z,8.00
2022-11-09T04:18:17.076Z,7.90
2022-11-09T04:23:04.152Z,7.80
2022-11-09T04:27:47.561Z,7.90
2022-11-09T04:32:37.080Z,7.90
2022-11-09T04:37:25.109Z,7.90
2022-11-09T04:42:10.659Z,8.00
2022-11-09T04:47:00.291Z,8.10
2022-11-09T04:51:49.533Z,8.10
2022-11-09T04:56:37.778Z,8.20
2022-11-09T05:01:30.237Z,8.20
2022-11-09T05:06:31.214Z,8.30
2022-11-09T05:11:16.975Z,8.40
2022-11-09T05:16:05.472Z,8.40
2022-11-09T05:20:52.617Z,8.50
2022-11-09T05:25:39.563Z,8.50
2022-11-09T05:30:29.839Z,8.40
2022-11-09T05:35:18.202Z,8.30
2022-11-09T05:40:03.689Z,8.20
2022-11-09T05:44:53.203Z,8.10
2022-11-09T05:49:39.628Z,8.10
2022-11-09T05:54:34.226Z,8.00
2022-11-09T05:59:17.700Z,8.00
2022-11-09T06:04:04.532Z,8.00
2022-11-09T06:08:54.147Z,8.10
2022-11-09T06:13:41.050Z,8.00
2022-11-09T06:18:32.346Z,8.00
2022-11-09T06:23:16.278Z,8.10
2022-11-09T06:28:08.873Z,8.00
2022-11-09T06:32:58.993Z,8.00
2022-11-09T06:37:58.719Z,8.00
2022-11-09T06:42:45.632Z,8.10
2022-11-09T06:47:32.329Z,8.30
2022-11-09T06:52:20.488Z,8.20
2022-11-09T06:57:10.861Z,8.30
2022-11-09T07:02:01.029Z,8.40
2022-11-09T07:06:45.617Z,8.60
2022-11-09T07:11:35.269Z,8.60
2022-11-09T07:16:21.752Z,8.70
2022-11-09T07:21:13.814Z,8.80
2022-11-09T07:25:59.860Z,8.90
2022-11-09T07:30:44.925Z,9.00
2022-11-09T07:35:34.566Z,9.00
2022-11-09T07:40:20.144Z,9.10
2022-11-09T07:45:13.040Z,9.30
2022-11-09T07:49:58.437Z,9.40
2022-11-09T07:54:46.113Z,9.50
2022-11-09T07:59:34.521Z,9.50
2022-11-09T08:04:22.103Z,9.80
2022-11-09T08:09:10.386Z,9.80
2022-11-09T08:13:56.309Z,9.90
2022-11-09T08:19:16.145Z,10.20
2022-11-09T08:24:10.886Z,10.40
2022-11-09T08:29:10.054Z,10.50
2022-11-09T08:33:56.861Z,10.50
2022-11-09T08:38:44.982Z,10.60
2022-11-09T08:43:32.876Z,10.60
2022-11-09T08:48:19.999Z,10.80
2022-11-09T08:53:10.364Z,11.00
2022-11-09T08:57:59.809Z,11.00
2022-11-09T09:02:44.885Z,11.10
2022-11-09T09:07:33.622Z,11.00
2022-11-09T09:12:20.493Z,11.00
2022-11-09T09:17:07.904Z,10.80
2022-11-09T09:22:00.133Z,11.00
2022-11-09T09:26:43.756Z,11.10
2022-11-09T09:31:37.015Z,11.10
2022-11-09T09:36:25.372Z,10.90
2022-11-09T09:41:26.219Z,10.80
2022-11-09T09:46:28.386Z,10.80
2022-11-09T09:51:31.060Z,10.80
2022-11-09T09:56:53.426Z,10.80
2022-11-09T10:01:44.393Z,10.80
2022-11-09T10:06:42.999Z,10.70
2022-11-09T10:12:07.494Z,10.70
2022-11-09T10:17:28.214Z,10.80
2022-11-09T10:22:28.535Z,10.70
2022-11-09T10:27:28.273Z,10.60
2022-11-09T10:32:15.587Z,10.60
2022-11-09T10:37:05.668Z,10.60
2022-11-09T10:41:48.956Z,10.80
2022-11-09T10:47:07.952Z,10.80
2022-11-09T10:52:33.391Z,11.00
2022-11-09T10:57:35.610Z,10.90
2022-11-09T11:02:46.683Z,10.80
2022-11-09T11:07:48.904Z,10.90
2022-11-09T11:13:13.952Z,11.00
2022-11-09T11:18:23.718Z,11.20
2022-11-09T11:23:26.888Z,11.30
2022-11-09T11:28:36.860Z,11.50
2022-11-09T11:33:40.443Z,11.50
2022-11-09T11:38:49.440Z,11.80
2022-11-09T11:43:58.027Z,11.80
2022-11-09T11:49:36.190Z,11.90
2022-11-09T11:54:50.201Z,11.90
2022-11-09T12:00:11.213Z,11.90
2022-11-09T12:05:38.737Z,12.10
2022-11-09T12:10:51.646Z,12.10
2022-11-09T12:15:58.959Z,12.00
2022-11-09T12:21:13.702Z,12.10
2022-11-09T12:26:39.242Z,11.90
2022-11-09T12:32:00.653Z,11.80
2022-11-09T12:37:05.914Z,11.60
2022-11-09T12:42:15.070Z,11.50
2022-11-09T12:47:30.032Z,11.60
2022-11-09T12:52:32.792Z,11.70
2022-11-09T12:57:36.886Z,11.90
2022-11-09T13:02:54.648Z,12.30
2022-11-09T13:08:00.469Z,12.80
2022-11-09T13:13:22.959Z,13.40
2022-11-09T13:18:27.297Z,13.80
2022-11-09T13:29:26.236Z,14.30
2022-11-09T13:34:44.836Z,14.40
2022-11-09T13:39:47.154Z,14.30
2022-11-09T13:44:51.053Z,14.20
2022-11-09T13:49:53.928Z,14.30
2022-11-09T13:54:56.361Z,14.30
2022-11-09T14:00:01.039Z,14.20
2022-11-09T14:05:03.043Z,13.90
2022-11-09T14:10:18.884Z,13.70
2022-11-09T14:15:36.308Z,13.50
2022-11-09T14:20:43.084Z,13.30
2022-11-09T14:25:45.553Z,13.10
2022-11-09T14:30:48.880Z,12.60
2022-11-09T14:35:52.954Z,12.40
2022-11-09T14:40:55.691Z,12.20
2022-11-09T14:46:01.261Z,12.20
2022-11-09T14:51:05.312Z,12.10
2022-11-09T14:56:09.730Z,11.90
2022-11-09T15:01:24.003Z,11.50
2022-11-09T15:06:26.012Z,11.10
2022-11-09T15:11:33.138Z,10.60
2022-11-09T15:16:36.438Z,10.20
2022-11-09T15:21:39.664Z,9.90
2022-11-09T15:26:44.548Z,9.80
2022-11-09T15:32:00.930Z,9.50
2022-11-09T15:37:03.366Z,9.20
2022-11-09T15:42:05.870Z,9.00
2022-11-09T15:47:23.326Z,8.70
2022-11-09T15:52:25.634Z,8.40
2022-11-09T15:57:27.878Z,8.30
2022-11-09T16:02:31.674Z,8.50
2022-11-09T16:07:33.924Z,8.70
2022-11-09T16:12:43.714Z,8.90
2022-11-09T16:17:50.505Z,8.90
2022-11-09T16:22:52.615Z,8.90
2022-11-09T16:27:55.707Z,8.90
2022-11-09T16:32:59.416Z,8.90
2022-11-09T16:38:05.086Z,8.90
2022-11-09T16:43:07.665Z,8.80
2022-11-09T16:48:14.496Z,8.80
2022-11-09T16:53:17.024Z,8.70
2022-11-09T16:58:22.788Z,8.80
2022-11-09T17:03:26.536Z,8.90
2022-11-09T17:08:28.847Z,8.80
2022-11-09T17:13:31.215Z,8.70
2022-11-09T17:18:35.491Z,8.80
2022-11-09T17:23:41.146Z,8.80
2022-11-09T17:28:45.660Z,8.90
2022-11-09T17:33:49.291Z,8.90
2022-11-09T17:38:51.946Z,8.90
2022-11-09T17:43:54.586Z,8.90
2022-11-09T17:48:58.280Z,8.80
2022-11-09T17:54:02.198Z,8.70
2022-11-09T17:59:05.809Z,8.70
2022-11-09T18:04:10.608Z,8.70
2022-11-09T18:09:40.176Z,8.70
2022-11-09T18:14:34.799Z,8.70
2022-11-09T18:19:38.520Z,8.80
2022-11-09T18:24:40.880Z,8.80
2022-11-09T18:29:43.433Z,9.10
2022-11-09T18:34:47.810Z,9.20
2022-11-09T18:39:49.899Z,9.40
2022-11-09T18:44:52.357Z,9.50
2022-11-09T18:49:56.218Z,9.60
2022-11-09T18:54:58.700Z,9.60
2022-11-09T19:00:00.940Z,9.50
2022-11-09T19:05:06.923Z,9.60
2022-11-09T19:10:10.369Z,9.80
2022-11-09T19:15:13.249Z,10.00
2022-11-09T19:20:18.398Z,10.20
2022-11-09T19:25:20.941Z,10.30
2022-11-09T19:30:25.580Z,10.40
2022-11-09T19:35:32.649Z,10.50
2022-11-09T19:40:39.808Z,10.50
2022-11-09T19:45:42.812Z,10.60
2022-11-09T19:50:52.545Z,10.70
2022-11-09T19:56:08.487Z,10.70
2022-11-09T20:01:12.568Z,10.70
2022-11-09T20:06:16.435Z,10.70
2022-11-09T20:11:34.100Z,10.70
2022-11-09T20:16:39.502Z,10.60
2022-11-09T20:21:44.577Z,10.60
2022-11-09T20:26:48.125Z,10.40
2022-11-09T20:31:50.588Z,10.50
2022-11-09T20:36:57.272Z,10.50
2022-11-09T20:42:48.481Z,10.60
2022-11-09T20:48:07.674Z,10.50
2022-11-09T20:53:32.108Z,10.60
2022-11-09T20:58:45.696Z,10.60
2022-11-09T21:03:53.168Z,10.70
2022-11-09T21:08:58.497Z,10.80
2022-11-09T21:14:13.652Z,10.80
2022-11-09T21:19:19.806Z,10.90
2022-11-09T21:24:41.616Z,11.00
2022-11-09T21:29:58.428Z,11.00
2022-11-09T21:35:03.498Z,10.90
2022-11-09T21:40:24.803Z,10.90
2022-11-09T21:45:28.491Z,10.80
2022-11-09T21:50:30.854Z,10.70
2022-11-09T21:55:35.198Z,10.70
2022-11-09T22:01:08.789Z,10.60
2022-11-09T22:06:16.155Z,10.70
2022-11-09T22:12:08.677Z,10.90
2022-11-09T22:17:12.654Z,11.00
2022-11-09T22:22:16.894Z,10.90
2022-11-09T22:27:56.677Z,11.00
2022-11-09T22:33:10.403Z,11.00
2022-11-09T22:38:15.963Z,10.90
2022-11-09T22:43:40.187Z,10.90
2022-11-09T22:48:56.815Z,10.80
2022-11-09T23:00:11.039Z,10.70
2022-11-09T23:05:42.730Z,10.70
2022-11-09T23:11:21.825Z,10.60
2022-11-09T23:16:40.904Z,10.50
2022-11-09T23:21:44.534Z,10.60
2022-11-09T23:26:47.207Z,10.60
2022-11-09T23:31:53.647Z,10.60
2022-11-09T23:36:59.613Z,10.50
2022-11-09T23:42:14.331Z,10.50
2022-11-09T23:47:23.114Z,10.50
2022-11-09T23:52:39.554Z,10.50
2022-11-09T23:57:42.095Z,10.50
